createdAt,value
2023-05-12T00:01:21.808Z,91.90
2023-05-12T00:03:49.280Z,91.90
2023-05-12T00:06:16.532Z,91.90
2023-05-12T00:08:43.933Z,91.90
2023-05-12T00:11:11.307Z,92.00
2023-05-12T00:13:38.604Z,92.10
2023-05-12T00:16:06.094Z,92.10
2023-05-12T00:18:33.379Z,92.10
2023-05-12T00:21:00.507Z,92.10
2023-05-12T00:23:27.659Z,92.10
2023-05-12T00:25:54.799Z,92.10
2023-05-12T00:28:22.080Z,92.10
2023-05-12T00:30:49.234Z,92.20
2023-05-12T00:33:17.335Z,92.20
2023-05-12T00:35:47.356Z,92.30
2023-05-12T00:38:14.558Z,92.30
2023-05-12T00:40:42.117Z,92.30
2023-05-12T00:43:09.379Z,92.30
2023-05-12T00:45:37.237Z,92.30
2023-05-12T00:48:06.345Z,92.30
2023-05-12T00:50:33.552Z,92.30
2023-05-12T00:53:02.124Z,92.30
2023-05-12T00:55:31.217Z,92.20
2023-05-12T00:57:59.802Z,92.20
2023-05-12T01:00:28.399Z,92.20
2023-05-12T01:02:58.955Z,92.30
2023-05-12T01:05:42.838Z,92.30
2023-05-12T01:08:11.909Z,92.30
2023-05-12T01:10:44.322Z,92.30
2023-05-12T01:13:11.993Z,92.30
2023-05-12T01:15:44.782Z,92.30
2023-05-12T01:18:13.020Z,92.30
2023-05-12T01:20:42.990Z,92.30
2023-05-12T01:23:14.141Z,92.30
2023-05-12T01:25:42.314Z,92.30
2023-05-12T01:28:10.234Z,92.30
2023-05-12T01:30:43.668Z,92.30
2023-05-12T01:33:13.226Z,92.30
2023-05-12T01:35:40.362Z,92.20
2023-05-12T01:38:07.510Z,92.20
2023-05-12T01:40:38.249Z,92.20
2023-05-12T01:43:05.688Z,92.30
2023-05-12T01:45:33.756Z,92.20
2023-05-12T01:48:01.133Z,92.50
2023-05-12T01:50:28.615Z,92.20
2023-05-12T01:52:56.034Z,92.20
2023-05-12T01:55:24.734Z,92.20
2023-05-12T01:57:57.228Z,92.20
2023-05-12T02:00:24.522Z,92.20
2023-05-12T02:02:54.591Z,92.30
2023-05-12T02:05:22.350Z,92.30
2023-05-12T02:07:51.268Z,92.20
2023-05-12T02:10:18.799Z,92.20
2023-05-12T02:12:46.585Z,92.20
2023-05-12T02:15:13.975Z,92.20
2023-05-12T02:17:45.250Z,92.20
2023-05-12T02:20:13.799Z,92.10
2023-05-12T02:22:40.960Z,92.20
2023-05-12T02:25:08.720Z,92.20
2023-05-12T02:27:36.573Z,92.20
2023-05-12T02:30:04.766Z,92.20
2023-05-12T02:32:33.828Z,92.20
2023-05-12T02:35:01.219Z,92.20
2023-05-12T02:37:28.886Z,92.20
2023-05-12T02:39:56.121Z,92.30
2023-05-12T02:42:23.999Z,92.30
2023-05-12T02:44:51.150Z,92.20
2023-05-12T02:47:18.411Z,92.30
2023-05-12T02:49:45.548Z,92.20
2023-05-12T02:52:13.727Z,92.20
2023-05-12T03:18:59.596Z,92.30
2023-05-12T03:21:28.662Z,92.30
2023-05-12T03:23:57.477Z,92.30
2023-05-12T03:26:25.822Z,92.30
2023-05-12T03:28:53.245Z,92.30
2023-05-12T03:31:20.635Z,92.20
2023-05-12T03:33:47.923Z,92.20
2023-05-12T03:36:15.070Z,92.20
2023-05-12T03:38:42.290Z,92.20
2023-05-12T03:41:09.478Z,92.20
2023-05-12T03:43:36.862Z,92.20
2023-05-12T03:46:04.210Z,92.20
2023-05-12T03:48:31.638Z,92.20
2023-05-12T03:50:59.244Z,92.20
2023-05-12T03:53:26.420Z,92.20
2023-05-12T03:55:53.600Z,92.20
2023-05-12T03:58:22.487Z,92.20
2023-05-12T04:00:50.341Z,92.20
2023-05-12T04:03:17.938Z,92.20
2023-05-12T04:05:45.329Z,92.20
2023-05-12T04:08:12.743Z,92.10
2023-05-12T04:10:40.563Z,92.10
2023-05-12T04:13:11.010Z,92.20
2023-05-12T04:15:38.107Z,92.20
2023-05-12T04:18:05.332Z,92.20
2023-05-12T04:20:32.461Z,92.20
2023-05-12T04:22:59.600Z,92.20
2023-05-12T04:25:26.761Z,92.20
2023-05-12T04:27:53.952Z,92.20
2023-05-12T04:30:22.217Z,92.20
2023-05-12T04:32:50.189Z,92.20
2023-05-12T04:35:17.369Z,92.20
2023-05-12T04:37:44.615Z,92.20
2023-05-12T04:40:11.959Z,92.20
2023-05-12T04:42:39.276Z,92.20
2023-05-12T04:45:09.034Z,92.20
2023-05-12T04:47:36.990Z,92.20
2023-05-12T04:50:07.466Z,92.20
2023-05-12T04:52:34.605Z,92.20
2023-05-12T04:55:01.764Z,92.20
2023-05-12T04:57:29.197Z,92.20
2023-05-12T04:59:58.549Z,92.20
2023-05-12T05:02:28.101Z,92.20
2023-05-12T05:04:55.476Z,92.20
2023-05-12T05:07:24.754Z,92.20
2023-05-12T05:09:51.920Z,92.30
2023-05-12T05:12:19.243Z,92.20
2023-05-12T05:14:46.700Z,92.20
2023-05-12T05:17:14.008Z,92.20
2023-05-12T05:19:54.970Z,92.20
2023-05-12T05:22:26.449Z,92.20
2023-05-12T05:24:53.922Z,92.20
2023-05-12T05:27:21.161Z,92.20
2023-05-12T05:29:49.481Z,92.10
2023-05-12T05:32:17.156Z,92.10
2023-05-12T05:34:45.010Z,92.10
2023-05-12T05:37:13.019Z,92.10
2023-05-12T05:39:40.644Z,92.10
2023-05-12T05:42:07.807Z,92.00
2023-05-12T05:44:36.109Z,92.00
2023-05-12T05:47:05.634Z,92.00
2023-05-12T05:49:32.893Z,92.00
2023-05-12T05:52:01.235Z,92.00
2023-05-12T05:54:28.844Z,91.90
2023-05-12T05:56:56.104Z,92.00
2023-05-12T05:59:24.539Z,91.90
2023-05-12T06:01:52.017Z,92.20
2023-05-12T06:04:19.335Z,91.90
2023-05-12T06:06:46.966Z,91.90
2023-05-12T06:09:15.647Z,91.80
2023-05-12T06:11:42.727Z,91.80
2023-05-12T06:14:09.831Z,91.80
2023-05-12T06:16:36.984Z,91.80
2023-05-12T06:19:04.363Z,91.80
2023-05-12T06:21:32.309Z,91.70
2023-05-12T06:23:59.639Z,91.70
2023-05-12T06:26:26.754Z,91.70
2023-05-12T06:28:56.351Z,91.70
2023-05-12T06:31:23.534Z,91.70
2023-05-12T06:33:50.908Z,91.70
2023-05-12T06:36:18.016Z,91.70
2023-05-12T06:38:45.307Z,91.70
2023-05-12T06:41:13.810Z,91.70
2023-05-12T06:43:42.920Z,91.70
2023-05-12T06:46:12.906Z,91.70
2023-05-12T06:48:42.927Z,91.60
2023-05-12T06:51:10.197Z,91.60
2023-05-12T06:53:38.237Z,91.60
2023-05-12T06:56:06.292Z,91.50
2023-05-12T06:58:33.659Z,91.50
2023-05-12T07:01:00.813Z,91.80
2023-05-12T07:03:28.081Z,91.50
2023-05-12T07:05:55.279Z,91.70
2023-05-12T07:08:23.477Z,91.50
2023-05-12T07:10:50.841Z,91.40
2023-05-12T07:13:19.118Z,91.40
2023-05-12T07:15:46.339Z,91.40
2023-05-12T07:18:13.982Z,91.40
2023-05-12T07:20:41.265Z,91.40
2023-05-12T07:23:09.401Z,91.40
2023-05-12T07:25:36.678Z,91.40
2023-05-12T07:28:04.005Z,91.40
2023-05-12T07:30:31.387Z,91.40
2023-05-12T07:32:58.513Z,91.40
2023-05-12T07:35:25.688Z,91.40
2023-05-12T07:37:59.573Z,91.40
2023-05-12T07:40:27.237Z,91.40
2023-05-12T07:42:58.288Z,91.40
2023-05-12T07:45:25.810Z,91.40
2023-05-12T07:47:55.043Z,91.40
2023-05-12T07:50:22.329Z,91.40
2023-05-12T07:52:51.267Z,91.30
2023-05-12T07:55:19.747Z,91.30
2023-05-12T07:57:47.659Z,91.30
2023-05-12T08:00:15.853Z,91.30
2023-05-12T08:02:43.474Z,91.30
2023-05-12T08:05:11.457Z,91.30
2023-05-12T08:07:41.182Z,91.30
2023-05-12T08:10:09.304Z,91.30
2023-05-12T08:12:36.459Z,91.30
2023-05-12T08:15:03.753Z,91.30
2023-05-12T08:17:31.001Z,91.30
2023-05-12T08:19:58.150Z,91.30
2023-05-12T08:22:25.354Z,91.30
2023-05-12T08:24:55.501Z,91.40
2023-05-12T08:27:22.676Z,91.40
2023-05-12T08:29:49.817Z,91.40
2023-05-12T08:32:16.938Z,91.30
2023-05-12T08:34:47.360Z,91.30
2023-05-12T08:37:14.615Z,91.30
2023-05-12T08:39:41.865Z,91.30
2023-05-12T08:42:39.661Z,91.30
2023-05-12T08:45:07.992Z,91.20
2023-05-12T08:47:36.771Z,91.10
2023-05-12T08:50:05.687Z,91.00
2023-05-12T08:52:34.544Z,90.90
2023-05-12T08:55:03.521Z,90.80
2023-05-12T08:57:31.741Z,90.80
2023-05-12T09:00:00.220Z,90.80
2023-05-12T09:02:37.679Z,90.80
2023-05-12T09:05:11.426Z,90.70
2023-05-12T09:07:44.023Z,90.70
2023-05-12T09:10:33.497Z,90.60
2023-05-12T09:13:16.682Z,90.40
2023-05-12T09:15:45.990Z,90.20
2023-05-12T09:18:14.198Z,90.10
2023-05-12T09:20:41.324Z,89.60
2023-05-12T09:23:21.803Z,89.50
2023-05-12T09:26:01.363Z,89.00
2023-05-12T09:28:38.766Z,88.50
2023-05-12T09:31:16.389Z,87.90
2023-05-12T09:33:43.653Z,87.80
2023-05-12T09:36:11.145Z,87.70
2023-05-12T09:38:38.388Z,87.60
2023-05-12T09:41:05.646Z,87.50
2023-05-12T09:43:33.074Z,87.20
2023-05-12T09:46:06.289Z,87.10
2023-05-12T09:48:33.898Z,87.00
2023-05-12T09:51:01.116Z,86.80
2023-05-12T09:53:28.319Z,86.60
2023-05-12T09:55:55.418Z,86.40
2023-05-12T09:58:28.278Z,85.20
2023-05-12T10:03:30.797Z,84.40
2023-05-12T10:06:04.559Z,84.40
2023-05-12T10:08:43.940Z,84.30
2023-05-12T10:11:11.668Z,84.60
2023-05-12T10:13:39.631Z,84.40
2023-05-12T10:16:07.980Z,83.80
2023-05-12T10:18:36.157Z,84.30
2023-05-12T10:21:04.217Z,83.80
2023-05-12T10:23:31.996Z,82.90
2023-05-12T10:26:02.381Z,82.80
2023-05-12T10:28:30.999Z,81.20
2023-05-12T10:30:59.301Z,81.30
2023-05-12T10:33:27.634Z,80.70
2023-05-12T10:35:56.620Z,81.40
2023-05-12T10:38:23.924Z,81.20
2023-05-12T10:41:01.537Z,81.50
2023-05-12T10:43:32.512Z,81.20
2023-05-12T10:46:20.939Z,81.00
2023-05-12T10:49:00.881Z,81.10
2023-05-12T10:51:30.407Z,80.60
2023-05-12T10:54:00.110Z,80.00
2023-05-12T10:56:42.475Z,80.00
2023-05-12T10:59:32.184Z,79.40
2023-05-12T11:02:05.555Z,79.30
2023-05-12T11:04:51.567Z,79.10
2023-05-12T11:07:24.717Z,79.60
2023-05-12T11:09:57.708Z,79.30
2023-05-12T11:12:32.188Z,78.90
2023-05-12T11:15:04.258Z,76.60
2023-05-12T11:17:32.164Z,76.90
2023-05-12T11:20:01.374Z,76.20
2023-05-12T11:22:29.273Z,75.30
2023-05-12T11:24:56.536Z,75.70
2023-05-12T11:27:24.274Z,75.20
2023-05-12T11:30:02.696Z,75.50
2023-05-12T11:32:30.424Z,76.20
2023-05-12T11:35:15.319Z,76.50
2023-05-12T11:37:44.248Z,76.30
2023-05-12T11:40:22.555Z,74.80
2023-05-12T11:42:53.071Z,74.70
2023-05-12T11:45:30.017Z,73.70
2023-05-12T11:48:13.993Z,73.50
2023-05-12T11:50:43.624Z,74.90
2023-05-12T11:53:16.339Z,74.70
2023-05-12T11:55:54.967Z,73.40
2023-05-12T11:58:26.583Z,74.70
2023-05-12T12:00:55.352Z,74.90
2023-05-12T12:03:23.098Z,74.80
2023-05-12T12:06:01.352Z,72.30
2023-05-12T12:08:28.811Z,71.80
2023-05-12T12:10:56.016Z,70.90
2023-05-12T12:13:24.746Z,71.30
2023-05-12T12:15:52.661Z,71.30
2023-05-12T12:18:19.958Z,71.70
2023-05-12T12:20:47.708Z,71.20
2023-05-12T12:23:15.011Z,71.40
2023-05-12T12:25:42.178Z,71.20
2023-05-12T12:28:09.398Z,69.70
2023-05-12T12:30:36.535Z,70.80
2023-05-12T12:33:03.809Z,69.60
2023-05-12T12:35:31.390Z,68.90
2023-05-12T12:37:58.733Z,67.60
2023-05-12T12:40:25.867Z,67.90
2023-05-12T12:42:53.490Z,68.30
2023-05-12T12:45:20.800Z,69.20
2023-05-12T12:47:48.164Z,69.30
2023-05-12T12:50:15.375Z,70.60
2023-05-12T12:52:43.254Z,69.70
2023-05-12T12:55:10.472Z,69.40
2023-05-12T12:57:38.929Z,69.20
2023-05-12T13:00:08.625Z,68.90
2023-05-12T13:02:37.460Z,70.00
2023-05-12T13:05:07.084Z,67.40
2023-05-12T13:07:34.704Z,68.80
2023-05-12T13:10:01.965Z,67.60
2023-05-12T13:12:30.630Z,68.80
2023-05-12T13:15:00.258Z,66.20
2023-05-12T13:17:28.931Z,63.70
2023-05-12T13:19:56.197Z,65.70
2023-05-12T13:22:23.344Z,63.50
2023-05-12T13:24:50.464Z,63.70
2023-05-12T13:27:18.140Z,62.80
2023-05-12T13:29:47.545Z,64.30
2023-05-12T13:32:17.821Z,65.20
2023-05-12T13:34:46.353Z,63.20
2023-05-12T13:37:13.516Z,63.40
2023-05-12T13:39:40.741Z,64.10
2023-05-12T13:42:07.980Z,63.10
2023-05-12T13:44:35.110Z,62.80
2023-05-12T13:47:02.631Z,62.80
2023-05-12T13:49:29.828Z,63.50
2023-05-12T13:51:57.079Z,61.90
2023-05-12T13:54:25.006Z,63.50
2023-05-12T13:56:52.242Z,63.90
2023-05-12T13:59:20.555Z,63.50
2023-05-12T14:01:48.068Z,63.60
2023-05-12T14:04:15.241Z,63.70
2023-05-12T14:06:42.612Z,64.40
2023-05-12T14:09:10.214Z,64.70
2023-05-12T14:11:37.335Z,64.90
2023-05-12T14:14:06.373Z,64.60
2023-05-12T14:16:33.838Z,65.00
2023-05-12T14:19:01.279Z,64.60
2023-05-12T14:21:28.513Z,64.80
2023-05-12T14:23:55.698Z,64.90
2023-05-12T14:26:22.865Z,65.30
2023-05-12T14:28:50.328Z,65.70
2023-05-12T14:31:18.063Z,65.40
2023-05-12T14:33:45.292Z,64.70
2023-05-12T14:36:12.421Z,65.10
2023-05-12T14:38:39.633Z,64.90
2023-05-12T14:41:08.573Z,65.10
2023-05-12T14:43:35.933Z,65.30
2023-05-12T14:46:06.680Z,64.80
2023-05-12T14:48:34.239Z,65.40
2023-05-12T14:51:03.419Z,64.60
2023-05-12T14:53:31.892Z,64.30
2023-05-12T14:55:59.028Z,65.40
2023-05-12T14:58:26.363Z,65.00
2023-05-12T15:00:53.717Z,64.70
2023-05-12T15:03:21.397Z,64.30
2023-05-12T15:08:21.882Z,63.70
2023-05-12T15:10:49.273Z,63.80
2023-05-12T15:13:18.655Z,63.70
2023-05-12T15:15:47.015Z,64.00
2023-05-12T15:18:14.346Z,64.10
2023-05-12T15:20:41.558Z,64.30
2023-05-12T15:23:08.649Z,65.00
2023-05-12T15:25:39.318Z,64.80
2023-05-12T15:28:06.690Z,65.50
2023-05-12T15:30:35.820Z,65.40
2023-05-12T15:33:06.685Z,64.90
2023-05-12T15:35:34.525Z,65.60
2023-05-12T15:38:01.932Z,65.00
2023-05-12T15:40:31.134Z,64.70
2023-05-12T15:42:58.595Z,64.50
2023-05-12T15:45:25.785Z,64.40
2023-05-12T15:47:53.138Z,64.40
2023-05-12T15:50:22.978Z,64.50
2023-05-12T15:52:50.506Z,64.10
2023-05-12T15:55:18.210Z,64.00
2023-05-12T15:57:45.592Z,64.30
2023-05-12T16:00:13.404Z,64.00
2023-05-12T16:02:40.787Z,64.70
2023-05-12T16:05:09.508Z,65.30
2023-05-12T16:07:36.680Z,65.80
2023-05-12T16:10:04.136Z,66.20
2023-05-12T16:12:31.625Z,66.50
2023-05-12T16:14:59.493Z,66.60
2023-05-12T16:17:27.964Z,66.70
2023-05-12T16:19:57.061Z,66.70
2023-05-12T16:22:24.329Z,67.10
2023-05-12T16:24:51.512Z,67.50
2023-05-12T16:27:18.715Z,67.60
2023-05-12T16:29:47.405Z,67.90
2023-05-12T16:32:14.611Z,68.20
2023-05-12T16:34:41.731Z,68.10
2023-05-12T16:37:08.916Z,68.20
2023-05-12T16:39:36.739Z,68.20
2023-05-12T16:42:04.114Z,68.10
2023-05-12T16:44:31.177Z,68.30
2023-05-12T16:46:58.336Z,68.20
2023-05-12T16:49:25.430Z,68.00
2023-05-12T16:51:52.532Z,68.10
2023-05-12T16:54:19.651Z,68.20
2023-05-12T16:56:47.488Z,68.30
2023-05-12T16:59:14.970Z,68.40
2023-05-12T17:01:42.085Z,68.40
2023-05-12T17:04:11.940Z,68.60
2023-05-12T17:06:39.125Z,68.70
2023-05-12T17:09:06.449Z,68.50
2023-05-12T17:11:33.784Z,68.30
2023-05-12T17:14:01.034Z,68.40
2023-05-12T17:16:28.845Z,68.40
2023-05-12T17:21:26.967Z,68.40
2023-05-12T17:23:54.571Z,68.50
2023-05-12T17:26:24.177Z,68.30
2023-05-12T17:28:51.480Z,68.30
2023-05-12T17:31:18.589Z,68.10
2023-05-12T17:33:45.793Z,68.30
2023-05-12T17:36:13.476Z,68.00
2023-05-12T17:38:41.477Z,68.00
2023-05-12T17:41:08.689Z,67.60
2023-05-12T17:43:35.939Z,67.80
2023-05-12T17:46:07.833Z,67.60
2023-05-12T17:48:35.298Z,67.40
2023-05-12T17:51:03.469Z,67.40
2023-05-12T17:53:31.413Z,67.10
2023-05-12T17:55:59.295Z,67.10
2023-05-12T17:58:26.603Z,67.50
2023-05-12T18:00:54.970Z,67.30
2023-05-12T18:03:24.116Z,67.00
2023-05-12T18:05:53.456Z,67.00
2023-05-12T18:08:20.968Z,66.70
2023-05-12T18:10:48.303Z,66.80
2023-05-12T18:13:15.642Z,67.00
2023-05-12T18:15:43.306Z,66.60
2023-05-12T18:18:11.006Z,66.70
2023-05-12T18:20:38.645Z,66.30
2023-05-12T18:23:05.829Z,66.40
2023-05-12T18:25:34.065Z,66.10
2023-05-12T18:28:02.673Z,65.90
2023-05-12T18:30:29.949Z,65.80
2023-05-12T18:32:57.228Z,65.80
2023-05-12T18:35:25.128Z,65.90
2023-05-12T18:37:52.294Z,66.40
2023-05-12T18:40:19.653Z,66.30
2023-05-12T18:42:46.778Z,67.20
2023-05-12T18:45:13.937Z,67.40
2023-05-12T18:47:41.472Z,68.20
2023-05-12T18:50:08.992Z,67.70
2023-05-12T18:52:36.398Z,67.60
2023-05-12T18:55:03.913Z,67.50
2023-05-12T18:57:31.092Z,67.50
2023-05-12T18:59:58.336Z,67.10
2023-05-12T19:02:25.486Z,67.30
2023-05-12T19:04:52.913Z,67.90
2023-05-12T19:07:20.123Z,67.50
2023-05-12T19:09:47.328Z,67.60
2023-05-12T19:12:14.558Z,67.90
2023-05-12T19:14:43.277Z,67.80
2023-05-12T19:17:10.996Z,67.70
2023-05-12T19:19:38.594Z,68.10
2023-05-12T19:22:05.865Z,68.40
2023-05-12T19:24:34.391Z,68.80
2023-05-12T19:27:01.550Z,68.20
2023-05-12T19:29:28.664Z,68.60
2023-05-12T19:31:56.002Z,68.80
2023-05-12T19:34:24.003Z,69.00
2023-05-12T19:36:53.049Z,69.00
2023-05-12T19:39:20.314Z,69.10
2023-05-12T19:41:47.662Z,69.00
2023-05-12T19:44:14.816Z,68.90
2023-05-12T19:46:42.046Z,69.20
2023-05-12T19:49:09.431Z,69.30
2023-05-12T19:51:36.564Z,69.50
2023-05-12T19:54:06.757Z,69.60
2023-05-12T19:56:34.329Z,69.70
2023-05-12T19:59:01.605Z,69.60
2023-05-12T20:01:29.064Z,69.70
2023-05-12T20:03:56.312Z,69.30
2023-05-12T20:06:25.098Z,69.50
2023-05-12T20:08:52.672Z,69.60
2023-05-12T20:11:19.966Z,69.30
2023-05-12T20:13:47.102Z,69.30
2023-05-12T20:16:14.453Z,69.60
2023-05-12T20:18:41.740Z,69.90
2023-05-12T20:21:08.925Z,70.10
2023-05-12T20:23:36.395Z,70.20
2023-05-12T20:26:04.355Z,70.40
2023-05-12T20:28:31.496Z,70.60
2023-05-12T20:30:58.660Z,70.80
2023-05-12T20:33:25.849Z,71.00
2023-05-12T20:35:53.138Z,70.90
2023-05-12T20:38:20.879Z,70.80
2023-05-12T20:40:47.993Z,70.70
2023-05-12T20:43:15.251Z,70.80
2023-05-12T20:45:42.666Z,71.00
2023-05-12T20:48:09.934Z,71.00
2023-05-12T20:50:37.096Z,71.00
2023-05-12T20:53:04.781Z,71.00
2023-05-12T20:55:35.464Z,71.10
2023-05-12T20:58:02.652Z,71.10
2023-05-12T21:00:29.795Z,71.20
2023-05-12T21:02:58.217Z,71.20
2023-05-12T21:05:25.805Z,71.30
2023-05-12T21:07:53.050Z,71.20
2023-05-12T21:10:21.222Z,71.00
2023-05-12T21:12:48.589Z,70.90
2023-05-12T21:15:15.721Z,70.80
2023-05-12T21:17:43.043Z,70.70
2023-05-12T21:20:11.983Z,70.60
2023-05-12T21:22:40.859Z,70.70
2023-05-12T21:25:08.421Z,71.30
2023-05-12T21:27:40.600Z,70.70
2023-05-12T21:30:09.837Z,70.60
2023-05-12T21:32:37.195Z,70.60
2023-05-12T21:35:04.954Z,70.60
2023-05-12T21:37:32.243Z,70.50
2023-05-12T21:39:59.820Z,70.60
2023-05-12T21:42:26.974Z,70.50
2023-05-12T21:44:57.093Z,70.60
2023-05-12T21:47:24.320Z,70.60
2023-05-12T21:49:57.267Z,70.60
2023-05-12T21:52:31.559Z,70.70
2023-05-12T21:55:09.014Z,70.70
2023-05-12T21:57:42.407Z,70.70
2023-05-12T22:00:18.096Z,71.30
2023-05-12T22:02:55.869Z,70.80
2023-05-12T22:05:48.706Z,70.80
2023-05-12T22:08:16.388Z,70.90
2023-05-12T22:10:43.818Z,71.00
2023-05-12T22:13:14.046Z,71.10
2023-05-12T22:15:44.262Z,71.30
2023-05-12T22:18:24.671Z,71.50
2023-05-12T22:20:52.149Z,71.50
2023-05-12T22:23:19.486Z,71.60
2023-05-12T22:25:49.879Z,71.60
2023-05-12T22:28:17.000Z,71.80
2023-05-12T22:30:44.047Z,71.90
2023-05-12T22:33:11.257Z,72.00
2023-05-12T22:35:38.421Z,72.10
2023-05-12T22:38:05.846Z,72.20
2023-05-12T22:40:33.897Z,72.90
2023-05-12T22:43:01.080Z,72.50
2023-05-12T22:45:28.158Z,72.70
2023-05-12T22:47:55.682Z,72.80
2023-05-12T22:50:23.337Z,73.00
2023-05-12T22:52:52.851Z,73.00
2023-05-12T22:55:20.138Z,73.00
2023-05-12T22:57:47.297Z,73.10
2023-05-12T23:00:14.799Z,73.20
2023-05-12T23:02:41.999Z,73.30
2023-05-12T23:05:09.849Z,73.30
2023-05-12T23:07:37.046Z,73.40
2023-05-12T23:10:04.443Z,73.40
2023-05-12T23:12:31.537Z,73.40
2023-05-12T23:14:58.664Z,73.50
2023-05-12T23:17:25.888Z,73.50
2023-05-12T23:19:53.588Z,73.50
2023-05-12T23:22:20.768Z,73.40
2023-05-12T23:24:47.903Z,73.50
2023-05-12T23:27:15.141Z,73.60
2023-05-12T23:29:42.258Z,73.70
2023-05-12T23:32:09.487Z,73.80
2023-05-12T23:34:40.284Z,74.00
2023-05-12T23:37:07.804Z,74.00
2023-05-12T23:39:35.102Z,74.20
2023-05-12T23:42:02.651Z,74.20
2023-05-12T23:44:30.655Z,74.20
2023-05-12T23:46:57.843Z,74.20
2023-05-12T23:49:24.985Z,74.30
2023-05-12T23:51:52.121Z,74.30
2023-05-12T23:54:19.479Z,74.40
2023-05-12T23:56:54.890Z,74.50
2023-05-12T23:59:24.795Z,74.70
